createdAt,value
2019-02-02T00:01:17.507Z,98017.81
2019-02-02T00:03:44.846Z,98017.66
2019-02-02T00:06:12.942Z,98014.94
2019-02-02T00:08:43.734Z,98012.64
2019-02-02T00:11:14.379Z,98009.29
2019-02-02T00:13:43.604Z,98011.63
2019-02-02T00:16:13.540Z,98013.22
2019-02-02T00:18:44.326Z,98022.97
2019-02-02T00:21:14.158Z,98026.60
2019-02-02T00:23:42.087Z,98034.59
2019-02-02T00:26:13.170Z,98046.02
2019-02-02T00:28:41.267Z,98055.72
2019-02-02T00:31:09.272Z,98057.87
2019-02-02T00:33:40.359Z,98057.14
2019-02-02T00:36:09.666Z,98054.25
2019-02-02T00:38:37.701Z,98050.39
2019-02-02T00:41:07.201Z,98051.77
2019-02-02T00:43:38.375Z,98063.66
2019-02-02T00:46:07.461Z,98062.31
2019-02-02T00:48:38.105Z,98061.27
2019-02-02T00:51:07.904Z,98054.20
2019-02-02T00:53:36.397Z,98067.71
2019-02-02T00:56:08.279Z,98068.52
2019-02-02T00:58:42.488Z,98068.31
2019-02-02T01:01:12.831Z,98051.03
2019-02-02T01:03:49.379Z,98047.84
2019-02-02T01:06:16.738Z,98051.29
2019-02-02T01:08:45.904Z,98055.34
2019-02-02T01:11:22.160Z,98056.81
2019-02-02T01:13:50.301Z,98051.69
2019-02-02T01:16:24.162Z,98047.02
2019-02-02T01:18:56.026Z,98055.61
2019-02-02T01:21:23.510Z,98057.78
2019-02-02T01:23:51.950Z,98060.48
2019-02-02T01:26:23.566Z,98057.82
2019-02-02T01:28:52.210Z,98052.12
2019-02-02T01:31:24.266Z,98056.89
2019-02-02T01:33:52.501Z,98055.28
2019-02-02T01:36:20.085Z,98066.44
2019-02-02T01:38:48.597Z,98065.64
2019-02-02T01:41:18.376Z,98073.63
2019-02-02T01:43:46.034Z,98076.78
2019-02-02T01:46:14.174Z,98069.30
2019-02-02T01:48:43.865Z,98064.66
2019-02-02T01:51:20.981Z,98068.83
2019-02-02T01:53:52.595Z,98073.34
2019-02-02T01:56:21.089Z,98072.02
2019-02-02T01:58:48.853Z,98073.11
2019-02-02T02:01:17.116Z,98067.27
2019-02-02T02:03:45.655Z,98068.44
2019-02-02T02:06:14.667Z,98054.58
2019-02-02T02:08:42.758Z,98039.41
2019-02-02T02:11:11.053Z,98037.22
2019-02-02T02:13:39.115Z,98039.50
2019-02-02T02:16:06.980Z,98056.05
2019-02-02T02:18:34.137Z,98064.34
2019-02-02T02:21:01.970Z,98072.66
2019-02-02T02:23:29.869Z,98073.81
2019-02-02T02:25:57.607Z,98086.06
2019-02-02T02:28:28.252Z,98090.32
2019-02-02T02:30:55.174Z,98092.09
2019-02-02T02:33:22.973Z,98091.81
2019-02-02T02:35:51.338Z,98087.97
2019-02-02T02:38:18.856Z,98086.92
2019-02-02T02:40:46.250Z,98081.98
2019-02-02T02:43:14.239Z,98076.00
2019-02-02T02:45:41.938Z,98069.32
2019-02-02T02:48:09.566Z,98058.80
2019-02-02T02:50:37.509Z,98040.44
2019-02-02T02:53:05.532Z,98044.20
2019-02-02T02:55:33.189Z,98045.23
2019-02-02T02:58:00.662Z,98035.96
2019-02-02T03:00:28.945Z,98037.36
2019-02-02T03:02:56.995Z,98043.34
2019-02-02T03:05:25.346Z,98042.80
2019-02-02T03:07:54.183Z,98037.89
2019-02-02T03:10:22.943Z,98046.02
2019-02-02T03:12:51.402Z,98052.03
2019-02-02T03:15:19.200Z,98055.27
2019-02-02T03:17:47.097Z,98059.36
2019-02-02T03:20:15.456Z,98063.92
2019-02-02T03:22:42.927Z,98069.86
2019-02-02T03:25:13.856Z,98069.86
2019-02-02T03:27:42.279Z,98069.93
2019-02-02T03:30:13.274Z,98068.25
2019-02-02T03:32:41.528Z,98063.92
2019-02-02T03:35:10.507Z,98060.08
2019-02-02T03:37:38.535Z,98058.45
2019-02-02T03:40:10.447Z,98055.28
2019-02-02T03:42:38.138Z,98052.58
2019-02-02T03:45:05.993Z,98052.77
2019-02-02T03:47:33.334Z,98056.08
2019-02-02T03:50:01.948Z,98061.77
2019-02-02T03:52:29.767Z,98059.89
2019-02-02T03:54:57.416Z,98063.59
2019-02-02T03:57:25.145Z,98054.05
2019-02-02T03:59:53.838Z,98050.99
2019-02-02T04:02:21.466Z,98045.05
2019-02-02T04:04:48.712Z,98045.50
2019-02-02T04:07:16.079Z,98042.78
2019-02-02T04:09:43.607Z,98035.05
2019-02-02T04:12:11.622Z,98028.93
2019-02-02T04:14:39.150Z,98023.00
2019-02-02T04:17:06.864Z,98014.41
2019-02-02T04:19:35.023Z,98021.39
2019-02-02T04:22:02.399Z,98042.41
2019-02-02T04:24:29.886Z,98058.05
2019-02-02T04:26:57.486Z,98062.78
2019-02-02T04:29:25.060Z,98081.30
2019-02-02T04:31:52.361Z,98105.16
2019-02-02T04:34:19.879Z,98110.67
2019-02-02T04:36:47.101Z,98115.90
2019-02-02T04:39:14.905Z,98129.34
2019-02-02T04:41:42.102Z,98123.48
2019-02-02T04:44:10.151Z,98129.70
2019-02-02T04:46:37.765Z,98133.81
2019-02-02T04:49:05.236Z,98134.09
2019-02-02T04:51:32.585Z,98124.13
2019-02-02T04:54:00.253Z,98129.87
2019-02-02T04:56:28.291Z,98120.95
2019-02-02T04:58:56.404Z,98123.68
2019-02-02T05:01:24.382Z,98112.31
2019-02-02T05:03:51.631Z,98126.09
2019-02-02T05:06:19.167Z,98125.54
2019-02-02T05:08:46.445Z,98132.59
2019-02-02T05:11:13.950Z,98121.41
2019-02-02T05:13:41.993Z,98122.42
2019-02-02T05:16:09.273Z,98123.59
2019-02-02T05:18:37.329Z,98132.34
2019-02-02T05:21:05.084Z,98130.70
2019-02-02T05:23:32.764Z,98142.06
2019-02-02T05:26:00.174Z,98152.02
2019-02-02T05:28:27.515Z,98154.81
2019-02-02T05:30:55.084Z,98162.45
2019-02-02T05:33:22.331Z,98158.61
2019-02-02T05:35:50.002Z,98148.28
2019-02-02T05:38:18.081Z,98142.38
2019-02-02T05:40:46.528Z,98149.72
2019-02-02T05:43:14.450Z,98146.98
2019-02-02T05:45:41.733Z,98139.59
2019-02-02T05:48:09.818Z,98130.98
2019-02-02T05:50:37.774Z,98134.56
2019-02-02T05:53:05.414Z,98132.14
2019-02-02T05:55:33.229Z,98136.92
2019-02-02T05:58:00.643Z,98134.50
2019-02-02T06:00:42.095Z,98142.66
2019-02-02T06:03:09.363Z,98156.86
2019-02-02T06:05:37.107Z,98157.79
2019-02-02T06:08:04.934Z,98164.54
2019-02-02T06:10:32.810Z,98160.30
2019-02-02T06:13:00.786Z,98168.73
2019-02-02T06:15:29.189Z,98175.98
2019-02-02T06:17:57.295Z,98175.98
2019-02-02T06:20:25.075Z,98191.59
2019-02-02T06:22:52.698Z,98198.88
2019-02-02T06:25:20.410Z,98195.02
2019-02-02T06:27:48.545Z,98192.88
2019-02-02T06:30:17.781Z,98191.42
2019-02-02T06:32:45.886Z,98185.21
2019-02-02T06:35:14.386Z,98179.87
2019-02-02T06:37:42.202Z,98176.30
2019-02-02T06:40:10.945Z,98169.60
2019-02-02T06:42:38.304Z,98171.99
2019-02-02T06:45:09.573Z,98184.51
2019-02-02T06:47:36.870Z,98186.05
2019-02-02T06:50:07.252Z,98193.90
2019-02-02T06:52:35.146Z,98205.32
2019-02-02T06:55:03.071Z,98215.47
2019-02-02T06:57:30.976Z,98213.39
2019-02-02T06:59:58.249Z,98207.85
2019-02-02T07:02:25.512Z,98222.05
2019-02-02T07:04:53.437Z,98218.09
2019-02-02T07:07:21.038Z,98221.33
2019-02-02T07:09:48.750Z,98220.62
2019-02-02T07:12:16.309Z,98245.24
2019-02-02T07:14:44.203Z,98268.56
2019-02-02T07:17:12.271Z,98267.75
2019-02-02T07:19:39.923Z,98268.48
2019-02-02T07:22:07.282Z,98277.73
2019-02-02T07:24:34.705Z,98286.13
2019-02-02T07:27:02.585Z,98279.45
2019-02-02T07:29:30.135Z,98285.93
2019-02-02T07:31:57.473Z,98284.80
2019-02-02T07:34:24.982Z,98289.88
2019-02-02T07:36:52.333Z,98299.70
2019-02-02T07:39:19.739Z,98295.73
2019-02-02T07:41:47.476Z,98294.02
2019-02-02T07:44:14.704Z,98286.78
2019-02-02T07:46:42.355Z,98284.36
2019-02-02T07:49:10.682Z,98290.52
2019-02-02T07:51:38.310Z,98302.00
2019-02-02T07:54:06.783Z,98308.56
2019-02-02T07:56:34.443Z,98313.43
2019-02-02T07:59:02.285Z,98311.96
2019-02-02T08:01:30.042Z,98313.53
2019-02-02T08:03:57.297Z,98310.55
2019-02-02T08:06:25.090Z,98317.30
2019-02-02T08:08:52.767Z,98323.87
2019-02-02T08:11:19.864Z,98322.30
2019-02-02T08:13:47.452Z,98318.78
2019-02-02T08:16:14.719Z,98317.02
2019-02-02T08:18:42.209Z,98325.59
2019-02-02T08:21:09.465Z,98336.23
2019-02-02T08:23:36.982Z,98343.72
2019-02-02T08:26:04.515Z,98348.14
2019-02-02T08:28:32.095Z,98354.98
2019-02-02T08:30:59.369Z,98349.41
2019-02-02T08:33:27.203Z,98361.95
2019-02-02T08:35:54.613Z,98359.44
2019-02-02T08:38:22.504Z,98366.84
2019-02-02T08:40:50.622Z,98361.52
2019-02-02T08:43:18.374Z,98372.05
2019-02-02T08:45:46.036Z,98370.81
2019-02-02T08:48:13.386Z,98344.59
2019-02-02T08:50:41.230Z,98352.30
2019-02-02T08:53:09.307Z,98366.81
2019-02-02T08:55:36.609Z,98366.61
2019-02-02T08:58:04.543Z,98361.56
2019-02-02T09:00:32.640Z,98371.57
2019-02-02T09:02:59.997Z,98384.28
2019-02-02T09:05:27.478Z,98387.00
2019-02-02T09:07:55.276Z,98382.21
2019-02-02T09:10:25.149Z,98380.66
2019-02-02T09:12:53.381Z,98389.89
2019-02-02T09:15:21.622Z,98383.39
2019-02-02T09:17:48.902Z,98375.36
2019-02-02T09:20:16.574Z,98390.00
2019-02-02T09:22:45.016Z,98392.22
2019-02-02T09:25:14.338Z,98391.35
2019-02-02T09:27:42.423Z,98405.70
2019-02-02T09:30:20.037Z,98408.13
2019-02-02T09:32:47.558Z,98404.34
2019-02-02T09:35:16.013Z,98413.81
2019-02-02T09:37:43.708Z,98422.83
2019-02-02T09:40:13.314Z,98430.48
2019-02-02T09:42:41.289Z,98428.34
2019-02-02T09:45:10.946Z,98442.38
2019-02-02T09:47:38.834Z,98445.09
2019-02-02T09:50:09.305Z,98448.28
2019-02-02T09:52:36.882Z,98450.58
2019-02-02T09:55:07.378Z,98454.67
2019-02-02T09:57:36.917Z,98454.05
2019-02-02T10:00:09.151Z,98463.63
2019-02-02T10:02:37.076Z,98466.47
2019-02-02T10:05:05.292Z,98478.14
2019-02-02T10:07:32.439Z,98479.34
2019-02-02T10:09:59.806Z,98472.19
2019-02-02T10:12:27.171Z,98482.38
2019-02-02T10:14:54.606Z,98476.08
2019-02-02T10:17:22.114Z,98477.67
2019-02-02T10:19:49.869Z,98482.59
2019-02-02T10:22:17.335Z,98494.45
2019-02-02T10:24:45.158Z,98491.75
2019-02-02T10:27:12.948Z,98497.47
2019-02-02T10:29:41.058Z,98499.72
2019-02-02T10:32:08.568Z,98502.33
2019-02-02T10:34:36.306Z,98501.09
2019-02-02T10:37:04.125Z,98509.19
2019-02-02T10:39:31.923Z,98500.81
2019-02-02T10:41:59.515Z,98505.23
2019-02-02T10:44:27.975Z,98499.63
2019-02-02T10:46:55.517Z,98504.58
2019-02-02T10:49:22.874Z,98509.72
2019-02-02T10:51:50.285Z,98506.00
2019-02-02T10:54:18.116Z,98504.99
2019-02-02T10:56:46.135Z,98504.45
2019-02-02T10:59:14.124Z,98502.38
2019-02-02T11:01:50.788Z,98504.28
2019-02-02T11:04:11.612Z,98503.28
2019-02-02T11:06:38.886Z,98510.93
2019-02-02T11:09:08.753Z,98508.50
2019-02-02T11:11:36.406Z,98509.33
2019-02-02T11:14:04.774Z,98513.38
2019-02-02T11:16:33.366Z,98509.84
2019-02-02T11:19:01.344Z,98514.47
2019-02-02T11:21:29.199Z,98517.17
2019-02-02T11:23:57.248Z,98519.20
2019-02-02T11:26:24.836Z,98518.33
2019-02-02T11:28:52.505Z,98515.08
2019-02-02T11:31:20.475Z,98513.27
2019-02-02T11:33:48.168Z,98514.35
2019-02-02T11:36:15.853Z,98514.94
2019-02-02T11:38:43.483Z,98520.66
2019-02-02T11:41:10.985Z,98526.94
2019-02-02T11:43:38.730Z,98528.73
2019-02-02T11:46:06.305Z,98531.84
2019-02-02T11:48:34.115Z,98531.08
2019-02-02T11:51:01.529Z,98539.52
2019-02-02T11:53:28.770Z,98548.99
2019-02-02T11:55:56.086Z,98545.02
2019-02-02T11:58:23.629Z,98550.00
2019-02-02T12:00:50.912Z,98549.41
2019-02-02T12:03:18.278Z,98548.86
2019-02-02T12:05:45.805Z,98563.80
2019-02-02T12:08:13.394Z,98560.63
2019-02-02T12:10:41.488Z,98554.58
2019-02-02T12:13:09.136Z,98550.28
2019-02-02T12:15:38.971Z,98554.72
2019-02-02T12:18:06.822Z,98557.38
2019-02-02T12:20:34.751Z,98565.08
2019-02-02T12:23:03.302Z,98573.57
2019-02-02T12:25:30.567Z,98579.20
2019-02-02T12:27:58.657Z,98585.47
2019-02-02T12:30:29.631Z,98589.58
2019-02-02T12:32:57.322Z,98586.97
2019-02-02T12:35:25.482Z,98592.25
2019-02-02T12:37:53.584Z,98592.52
2019-02-02T12:40:21.502Z,98595.57
2019-02-02T12:42:49.084Z,98600.94
2019-02-02T12:45:23.717Z,98605.11
2019-02-02T12:47:51.046Z,98607.77
2019-02-02T12:50:18.825Z,98607.23
2019-02-02T12:52:46.986Z,98605.34
2019-02-02T12:55:14.848Z,98604.59
2019-02-02T12:57:42.442Z,98601.05
2019-02-02T13:00:14.331Z,98607.02
2019-02-02T13:02:42.162Z,98610.64
2019-02-02T13:08:57.284Z,98622.24
2019-02-02T13:11:24.830Z,98625.07
2019-02-02T13:13:52.732Z,98618.49
2019-02-02T13:16:20.532Z,98631.27
2019-02-02T13:18:47.784Z,98631.73
2019-02-02T13:21:15.840Z,98638.24
2019-02-02T13:23:42.995Z,98635.34
2019-02-02T13:26:10.330Z,98645.63
2019-02-02T13:28:38.359Z,98645.16
2019-02-02T13:31:05.609Z,98636.94
2019-02-02T13:33:33.314Z,98639.45
2019-02-02T13:36:00.810Z,98626.98
2019-02-02T13:38:28.126Z,98630.84
2019-02-02T13:40:56.018Z,98621.39
2019-02-02T13:43:23.410Z,98633.23
2019-02-02T13:45:50.748Z,98637.05
2019-02-02T13:48:18.097Z,98643.63
2019-02-02T13:50:46.653Z,98646.45
2019-02-02T13:53:14.435Z,98649.17
2019-02-02T13:55:42.291Z,98653.41
2019-02-02T13:58:09.786Z,98657.03
2019-02-02T14:00:37.901Z,98657.20
2019-02-02T14:03:05.947Z,98659.00
2019-02-02T14:05:33.453Z,98665.31
2019-02-02T14:08:01.209Z,98670.46
2019-02-02T14:10:30.562Z,98676.18
2019-02-02T14:12:58.389Z,98684.26
2019-02-02T14:15:26.434Z,98684.94
2019-02-02T14:17:53.805Z,98683.52
2019-02-02T14:20:21.593Z,98693.28
2019-02-02T14:22:48.904Z,98690.89
2019-02-02T14:25:17.525Z,98703.45
2019-02-02T14:27:45.102Z,98699.05
2019-02-02T14:30:16.119Z,98699.37
2019-02-02T14:32:43.486Z,98699.11
2019-02-02T14:35:12.282Z,98706.71
2019-02-02T14:37:40.143Z,98708.56
2019-02-02T14:40:09.600Z,98715.06
2019-02-02T14:42:37.089Z,98717.80
2019-02-02T14:45:07.780Z,98721.11
2019-02-02T14:47:35.079Z,98719.98
2019-02-02T14:50:03.810Z,98724.84
2019-02-02T14:52:31.900Z,98725.94
2019-02-02T14:54:59.180Z,98726.70
2019-02-02T14:57:26.714Z,98727.86
2019-02-02T14:59:54.220Z,98730.89
2019-02-02T15:02:21.591Z,98735.45
2019-02-02T15:04:49.624Z,98739.53
2019-02-02T15:07:17.274Z,98751.77
2019-02-02T15:09:45.903Z,98760.72
2019-02-02T15:12:13.822Z,98761.73
2019-02-02T15:14:41.147Z,98764.66
2019-02-02T15:17:09.309Z,98774.16
2019-02-02T15:19:37.182Z,98772.59
2019-02-02T15:22:05.037Z,98786.94
2019-02-02T15:24:32.586Z,98794.53
2019-02-02T15:27:00.141Z,98804.23
2019-02-02T15:29:27.605Z,98801.66
2019-02-02T15:31:55.274Z,98810.33
2019-02-02T15:34:23.563Z,98816.25
2019-02-02T15:36:50.990Z,98813.84
2019-02-02T15:39:18.739Z,98809.77
2019-02-02T15:41:53.040Z,98815.73
2019-02-02T15:44:16.152Z,98819.46
2019-02-02T15:46:49.070Z,98830.23
2019-02-02T15:49:13.219Z,98843.84
2019-02-02T15:51:41.203Z,98847.08
2019-02-02T15:54:08.606Z,98850.16
2019-02-02T15:56:35.891Z,98859.40
2019-02-02T15:59:03.440Z,98858.45
2019-02-02T16:01:30.971Z,98868.45
2019-02-02T16:03:58.507Z,98870.89
2019-02-02T16:06:26.220Z,98874.94
2019-02-02T16:08:53.905Z,98886.86
2019-02-02T16:11:21.523Z,98884.45
2019-02-02T16:13:48.730Z,98886.89
2019-02-02T16:16:16.126Z,98890.48
2019-02-02T16:18:43.602Z,98889.86
2019-02-02T16:21:11.240Z,98891.78
2019-02-02T16:23:39.478Z,98899.08
2019-02-02T16:26:06.780Z,98898.98
2019-02-02T16:28:34.424Z,98905.27
2019-02-02T16:31:02.121Z,98908.03
2019-02-02T16:33:31.627Z,98907.47
2019-02-02T16:35:59.623Z,98911.06
2019-02-02T16:38:27.570Z,98917.02
2019-02-02T16:40:55.642Z,98926.13
2019-02-02T16:43:23.182Z,98927.23
2019-02-02T16:45:52.936Z,98934.07
2019-02-02T16:48:22.212Z,98933.07
2019-02-02T16:50:51.542Z,98944.94
2019-02-02T16:53:21.923Z,98944.94
2019-02-02T16:55:53.252Z,98950.05
2019-02-02T16:58:23.396Z,98954.66
2019-02-02T17:00:50.909Z,98959.80
2019-02-02T17:03:18.626Z,98963.33
2019-02-02T17:05:46.018Z,98964.16
2019-02-02T17:08:13.441Z,98976.99
2019-02-02T17:10:41.068Z,98977.18
2019-02-02T17:13:09.321Z,98977.50
2019-02-02T17:15:36.573Z,98977.02
2019-02-02T17:18:05.349Z,98980.27
2019-02-02T17:20:42.001Z,98975.38
2019-02-02T17:23:09.452Z,98986.77
2019-02-02T17:25:37.242Z,98987.20
2019-02-02T17:28:06.408Z,98988.34
2019-02-02T17:30:34.645Z,98989.23
2019-02-02T17:33:04.934Z,98991.25
2019-02-02T17:35:32.306Z,99003.45
2019-02-02T17:37:59.667Z,99004.38
2019-02-02T17:40:27.441Z,99004.94
2019-02-02T17:42:55.543Z,99009.95
2019-02-02T17:45:23.760Z,99015.31
2019-02-02T17:47:52.757Z,99013.42
2019-02-02T17:50:22.015Z,99012.28
2019-02-02T17:52:50.002Z,99016.36
2019-02-02T17:55:18.897Z,99020.17
2019-02-02T17:57:46.665Z,99027.77
2019-02-02T18:00:28.015Z,99032.91
2019-02-02T18:02:55.867Z,99035.63
2019-02-02T18:05:23.109Z,99041.16
2019-02-02T18:07:50.821Z,99048.51
2019-02-02T18:10:18.146Z,99040.34
2019-02-02T18:12:46.370Z,99047.05
2019-02-02T18:15:14.047Z,99042.69
2019-02-02T18:17:41.864Z,99044.30
2019-02-02T18:20:11.887Z,99048.62
2019-02-02T18:22:39.578Z,99045.55
2019-02-02T18:25:09.474Z,99045.69
2019-02-02T18:27:37.464Z,99048.41
2019-02-02T18:30:09.629Z,99052.19
2019-02-02T18:32:36.857Z,99051.33
2019-02-02T18:35:05.767Z,99058.97
2019-02-02T18:37:33.463Z,99059.19
2019-02-02T18:40:00.758Z,99064.83
2019-02-02T18:42:28.423Z,99060.05
2019-02-02T18:44:56.413Z,99057.09
2019-02-02T18:47:24.215Z,99058.01
2019-02-02T18:49:51.875Z,99054.73
2019-02-02T18:52:19.302Z,99048.95
2019-02-02T18:54:47.238Z,99061.01
2019-02-02T18:57:14.357Z,99061.19
2019-02-02T18:59:41.862Z,99066.03
2019-02-02T19:02:16.902Z,99069.39
2019-02-02T19:04:44.410Z,99071.56
2019-02-02T19:07:12.398Z,99078.34
2019-02-02T19:09:42.290Z,99070.46
2019-02-02T19:12:09.888Z,99076.70
2019-02-02T19:14:37.408Z,99080.23
2019-02-02T19:17:04.810Z,99084.16
2019-02-02T19:19:32.298Z,99091.40
2019-02-02T19:21:59.876Z,99099.53
2019-02-02T19:24:27.239Z,99097.26
2019-02-02T19:26:54.988Z,99101.33
2019-02-02T19:29:22.652Z,99108.95
2019-02-02T19:31:52.101Z,99115.20
2019-02-02T19:34:21.021Z,99124.83
2019-02-02T19:36:51.376Z,99127.54
2019-02-02T19:39:18.633Z,99131.45
2019-02-02T19:41:52.547Z,99139.20
2019-02-02T19:44:22.694Z,99147.88
2019-02-02T19:46:54.801Z,99153.89
2019-02-02T19:49:23.236Z,99146.48
2019-02-02T19:51:54.342Z,99151.12
2019-02-02T19:54:22.121Z,99156.63
2019-02-02T19:56:50.229Z,99168.58
2019-02-02T19:59:17.469Z,99175.45
2019-02-02T20:01:45.483Z,99179.30
2019-02-02T20:04:20.900Z,99185.47
2019-02-02T20:06:51.947Z,99185.33
2019-02-02T20:09:20.982Z,99179.55
2019-02-02T20:11:48.905Z,99177.91
2019-02-02T20:14:17.070Z,99185.91
2019-02-02T20:16:45.073Z,99198.34
2019-02-02T20:19:12.494Z,99209.88
2019-02-02T20:21:40.163Z,99218.83
2019-02-02T20:24:07.438Z,99225.08
2019-02-02T20:26:35.816Z,99229.67
2019-02-02T20:29:03.754Z,99240.75
2019-02-02T20:31:31.299Z,99244.41
2019-02-02T20:33:58.894Z,99244.17
2019-02-02T20:36:26.126Z,99253.69
2019-02-02T20:38:53.907Z,99264.66
2019-02-02T20:41:21.777Z,99262.88
2019-02-02T20:43:49.428Z,99265.27
2019-02-02T20:46:16.559Z,99262.85
2019-02-02T20:48:45.266Z,99268.14
2019-02-02T20:51:12.526Z,99274.14
2019-02-02T20:53:40.062Z,99272.15
2019-02-02T20:56:08.010Z,99288.59
2019-02-02T20:58:35.654Z,99292.58
2019-02-02T21:01:04.484Z,99299.45
2019-02-02T21:03:32.198Z,99307.97
2019-02-02T21:05:59.347Z,99317.31
2019-02-02T21:08:26.900Z,99325.63
2019-02-02T21:10:54.303Z,99326.40
2019-02-02T21:13:22.350Z,99333.70
2019-02-02T21:15:49.985Z,99341.66
2019-02-02T21:18:17.782Z,99348.43
2019-02-02T21:20:45.297Z,99357.27
2019-02-02T21:23:13.102Z,99360.08
2019-02-02T21:25:40.875Z,99371.88
2019-02-02T21:28:08.474Z,99369.37
2019-02-02T21:30:35.774Z,99379.54
2019-02-02T21:33:04.037Z,99382.10
2019-02-02T21:35:31.863Z,99380.78
2019-02-02T21:37:59.240Z,99386.20
2019-02-02T21:40:29.680Z,99397.83
2019-02-02T21:42:57.030Z,99400.16
2019-02-02T21:45:24.431Z,99408.08
2019-02-02T21:47:52.191Z,99411.62
2019-02-02T21:50:21.998Z,99411.62
2019-02-02T21:52:50.298Z,99420.87
2019-02-02T21:55:21.034Z,99417.21
2019-02-02T21:57:48.610Z,99421.27
2019-02-02T22:00:22.411Z,99414.45
2019-02-02T22:02:50.502Z,99413.67
2019-02-02T22:05:18.376Z,99414.23
2019-02-02T22:07:47.482Z,99409.99
2019-02-02T22:10:15.652Z,99416.33
2019-02-02T22:12:43.465Z,99414.15
2019-02-02T22:15:17.657Z,99414.20
2019-02-02T22:17:45.306Z,99418.51
2019-02-02T22:20:13.652Z,99409.55
2019-02-02T22:22:41.265Z,99415.41
2019-02-02T22:25:13.543Z,99418.73
2019-02-02T22:27:41.371Z,99411.66
2019-02-02T22:30:13.706Z,99416.49
2019-02-02T22:32:41.226Z,99424.41
2019-02-02T22:35:09.111Z,99425.89
2019-02-02T22:37:36.784Z,99421.13
2019-02-02T22:40:07.847Z,99429.78
2019-02-02T22:42:35.529Z,99431.08
2019-02-02T22:45:04.598Z,99436.05
2019-02-02T22:47:32.321Z,99445.53
2019-02-02T22:50:00.251Z,99444.84
2019-02-02T22:52:27.845Z,99441.63
2019-02-02T22:54:55.163Z,99442.91
2019-02-02T22:57:22.315Z,99444.41
2019-02-02T22:59:50.040Z,99446.66
2019-02-02T23:02:20.590Z,99452.08
2019-02-02T23:05:32.971Z,99460.59
2019-02-02T23:08:46.616Z,99456.53
2019-02-02T23:11:45.446Z,99461.18
2019-02-02T23:14:40.906Z,99476.45
2019-02-02T23:17:09.189Z,99484.51
2019-02-02T23:19:36.565Z,99481.04
2019-02-02T23:22:04.730Z,99485.17
2019-02-02T23:24:32.663Z,99496.23
2019-02-02T23:27:00.431Z,99503.23
2019-02-02T23:29:29.789Z,99514.44
2019-02-02T23:31:57.858Z,99516.67
2019-02-02T23:34:25.390Z,99514.13
2019-02-02T23:36:55.673Z,99516.61
2019-02-02T23:39:24.382Z,99517.73
2019-02-02T23:41:52.494Z,99524.87
2019-02-02T23:44:20.043Z,99527.51
2019-02-02T23:46:48.426Z,99531.10
2019-02-02T23:49:15.845Z,99534.44
2019-02-02T23:51:43.633Z,99532.49
2019-02-02T23:54:12.197Z,99543.17
2019-02-02T23:56:39.736Z,99550.41
2019-02-02T23:59:07.287Z,99562.11
